createdAt,value
2019-02-10T00:01:15.031Z,6.40
2019-02-10T00:03:43.440Z,6.40
2019-02-10T00:06:11.841Z,6.50
2019-02-10T00:08:40.483Z,6.50
2019-02-10T00:11:09.128Z,6.40
2019-02-10T00:13:37.622Z,6.40
2019-02-10T00:16:11.506Z,6.60
2019-02-10T00:18:39.975Z,6.60
2019-02-10T00:21:08.413Z,6.50
2019-02-10T00:23:36.882Z,6.50
2019-02-10T00:26:05.535Z,6.40
2019-02-10T00:28:33.937Z,6.50
2019-02-10T00:31:02.356Z,6.50
2019-02-10T00:33:30.755Z,6.50
2019-02-10T00:35:59.175Z,6.50
2019-02-10T00:38:27.569Z,6.50
2019-02-10T00:40:56.062Z,6.50
2019-02-10T00:43:24.711Z,6.50
2019-02-10T00:45:53.426Z,6.60
2019-02-10T00:48:21.834Z,6.60
2019-02-10T00:50:50.229Z,6.50
2019-02-10T00:53:18.691Z,6.60
2019-02-10T00:55:47.115Z,6.50
2019-02-10T00:58:15.751Z,6.50
2019-02-10T01:00:44.529Z,6.50
2019-02-10T01:03:12.934Z,6.60
2019-02-10T01:05:41.329Z,6.50
2019-02-10T01:08:09.726Z,6.60
2019-02-10T01:10:38.371Z,6.60
2019-02-10T01:13:06.838Z,6.60
2019-02-10T01:15:35.502Z,6.60
2019-02-10T01:18:03.971Z,6.50
2019-02-10T01:20:32.370Z,6.60
2019-02-10T01:23:00.771Z,6.50
2019-02-10T01:25:29.239Z,6.50
2019-02-10T01:27:57.637Z,6.50
2019-02-10T01:30:26.186Z,6.40
2019-02-10T01:32:54.970Z,6.40
2019-02-10T01:35:23.382Z,6.50
2019-02-10T01:37:51.779Z,6.60
2019-02-10T01:40:20.193Z,6.50
2019-02-10T01:42:48.585Z,6.50
2019-02-10T01:45:17.926Z,6.50
2019-02-10T01:47:46.567Z,6.60
2019-02-10T01:50:15.199Z,6.50
2019-02-10T01:52:43.842Z,6.50
2019-02-10T01:55:13.642Z,6.60
2019-02-10T01:57:42.189Z,6.60
2019-02-10T02:00:13.638Z,6.60
2019-02-10T02:02:42.111Z,6.60
2019-02-10T02:05:10.616Z,6.60
2019-02-10T02:07:39.018Z,6.60
2019-02-10T02:10:10.445Z,6.70
2019-02-10T02:12:39.088Z,6.60
2019-02-10T02:15:15.366Z,6.60
2019-02-10T02:17:43.845Z,6.70
2019-02-10T02:20:13.377Z,6.70
2019-02-10T02:22:41.790Z,6.70
2019-02-10T02:25:11.832Z,6.70
2019-02-10T02:27:40.223Z,6.70
2019-02-10T02:30:11.459Z,6.80
2019-02-10T02:32:39.934Z,6.80
2019-02-10T02:35:09.008Z,6.70
2019-02-10T02:37:37.672Z,6.70
2019-02-10T02:40:08.978Z,6.60
2019-02-10T02:42:37.723Z,6.60
2019-02-10T02:45:09.145Z,6.80
2019-02-10T02:47:37.556Z,6.80
2019-02-10T02:50:08.309Z,6.80
2019-02-10T02:52:36.692Z,6.80
2019-02-10T02:55:07.409Z,6.90
2019-02-10T02:57:35.804Z,6.90
2019-02-10T03:00:05.656Z,6.80
2019-02-10T03:02:34.058Z,6.80
2019-02-10T03:05:02.454Z,6.80
2019-02-10T03:07:30.854Z,6.70
2019-02-10T03:09:59.502Z,6.50
2019-02-10T03:12:27.913Z,6.50
2019-02-10T03:14:56.327Z,6.40
2019-02-10T03:17:24.738Z,6.40
2019-02-10T03:19:53.162Z,6.30
2019-02-10T03:22:21.559Z,6.30
2019-02-10T03:24:49.981Z,6.20
2019-02-10T03:27:18.375Z,6.10
2019-02-10T03:29:47.020Z,6.10
2019-02-10T03:32:15.433Z,6.00
2019-02-10T03:34:43.827Z,6.00
2019-02-10T03:37:12.246Z,6.00
2019-02-10T03:39:40.734Z,6.00
2019-02-10T03:42:09.299Z,6.00
2019-02-10T03:44:37.726Z,5.90
2019-02-10T03:47:06.113Z,5.90
2019-02-10T03:49:34.522Z,5.90
2019-02-10T03:52:02.934Z,5.90
2019-02-10T03:54:31.338Z,5.90
2019-02-10T03:56:59.997Z,5.90
2019-02-10T03:59:28.682Z,5.90
2019-02-10T04:01:57.369Z,5.90
2019-02-10T04:04:26.016Z,5.90
2019-02-10T04:06:54.431Z,6.00
2019-02-10T04:09:22.822Z,6.00
2019-02-10T04:11:51.218Z,6.00
2019-02-10T04:14:19.636Z,6.00
2019-02-10T04:16:48.330Z,5.90
2019-02-10T04:19:16.738Z,6.00
2019-02-10T04:21:45.130Z,6.10
2019-02-10T04:24:13.765Z,6.10
2019-02-10T04:26:42.166Z,6.10
2019-02-10T04:29:10.562Z,6.10
2019-02-10T04:31:38.987Z,6.10
2019-02-10T04:34:07.383Z,6.10
2019-02-10T04:36:36.022Z,6.10
2019-02-10T04:39:05.653Z,6.20
2019-02-10T04:41:34.121Z,6.20
2019-02-10T04:44:02.527Z,6.20
2019-02-10T04:46:30.956Z,6.20
2019-02-10T04:48:59.354Z,6.20
2019-02-10T04:51:27.829Z,6.20
2019-02-10T04:53:56.218Z,6.20
2019-02-10T04:56:24.619Z,6.20
2019-02-10T04:58:53.018Z,6.30
2019-02-10T05:01:21.424Z,6.30
2019-02-10T05:03:49.810Z,6.40
2019-02-10T05:06:18.207Z,6.50
2019-02-10T05:08:46.613Z,6.50
2019-02-10T05:11:15.013Z,6.50
2019-02-10T05:13:43.658Z,6.50
2019-02-10T05:16:12.068Z,6.50
2019-02-10T05:18:40.446Z,6.60
2019-02-10T05:21:09.098Z,6.60
2019-02-10T05:23:37.519Z,6.60
2019-02-10T05:26:05.986Z,6.70
2019-02-10T05:28:34.392Z,6.80
2019-02-10T05:31:02.804Z,6.80
2019-02-10T05:33:31.437Z,6.90
2019-02-10T05:36:00.075Z,6.90
2019-02-10T05:38:28.475Z,6.90
2019-02-10T05:40:56.871Z,6.90
2019-02-10T05:43:25.527Z,7.00
2019-02-10T05:45:53.918Z,7.00
2019-02-10T05:48:22.316Z,7.10
2019-02-10T05:50:50.727Z,7.20
2019-02-10T05:53:19.373Z,7.10
2019-02-10T05:55:48.101Z,7.20
2019-02-10T05:58:16.503Z,7.20
2019-02-10T06:00:44.899Z,7.30
2019-02-10T06:03:13.290Z,7.40
2019-02-10T06:05:41.682Z,7.40
2019-02-10T06:08:13.480Z,7.30
2019-02-10T06:10:40.263Z,7.30
2019-02-10T06:13:08.896Z,7.40
2019-02-10T06:15:37.299Z,7.40
2019-02-10T06:18:05.730Z,7.40
2019-02-10T06:20:34.404Z,7.50
2019-02-10T06:23:02.811Z,7.50
2019-02-10T06:25:31.215Z,7.50
2019-02-10T06:27:59.605Z,7.60
2019-02-10T06:30:28.016Z,7.70
2019-02-10T06:32:56.658Z,7.70
2019-02-10T06:35:25.291Z,7.70
2019-02-10T06:37:54.010Z,7.70
2019-02-10T06:40:22.403Z,7.70
2019-02-10T06:42:50.811Z,7.80
2019-02-10T06:45:19.515Z,7.70
2019-02-10T06:47:47.909Z,7.90
2019-02-10T06:50:16.319Z,7.80
2019-02-10T06:52:44.959Z,7.80
2019-02-10T06:55:13.376Z,7.90
2019-02-10T06:57:42.256Z,7.90
2019-02-10T07:00:19.009Z,7.90
2019-02-10T07:03:25.142Z,7.90
2019-02-10T07:05:53.550Z,7.90
2019-02-10T07:08:30.155Z,8.00
2019-02-10T07:10:52.337Z,8.00
2019-02-10T07:13:23.809Z,8.00
2019-02-10T07:16:29.990Z,8.00
2019-02-10T07:19:24.017Z,8.10
2019-02-10T07:21:52.437Z,8.30
2019-02-10T07:24:41.937Z,8.20
2019-02-10T07:27:16.834Z,8.20
2019-02-10T07:30:05.619Z,8.20
2019-02-10T07:32:52.104Z,8.20
2019-02-10T07:35:23.820Z,8.30
2019-02-10T07:37:58.168Z,8.40
2019-02-10T07:40:55.563Z,8.30
2019-02-10T07:43:27.047Z,8.30
2019-02-10T07:46:01.463Z,8.30
2019-02-10T07:48:35.524Z,8.30
2019-02-10T07:51:23.698Z,8.40
2019-02-10T07:54:13.564Z,8.40
2019-02-10T07:56:45.047Z,8.50
2019-02-10T07:59:31.660Z,8.40
2019-02-10T08:02:08.733Z,8.50
2019-02-10T08:04:46.411Z,8.60
2019-02-10T08:07:23.608Z,8.50
2019-02-10T08:09:58.095Z,8.60
2019-02-10T08:12:32.252Z,8.60
2019-02-10T08:15:12.741Z,8.60
2019-02-10T08:17:44.218Z,8.70
2019-02-10T08:20:27.433Z,8.60
2019-02-10T08:23:20.203Z,8.60
2019-02-10T08:26:12.690Z,8.70
2019-02-10T08:28:58.754Z,8.70
2019-02-10T08:31:39.327Z,8.80
2019-02-10T08:34:10.819Z,8.80
2019-02-10T08:36:42.305Z,8.80
2019-02-10T08:39:32.130Z,8.80
2019-02-10T08:42:09.807Z,8.80
2019-02-10T08:44:46.540Z,8.80
2019-02-10T08:47:36.478Z,8.80
2019-02-10T08:50:27.763Z,8.80
2019-02-10T08:52:59.386Z,8.80
2019-02-10T08:55:27.840Z,9.00
2019-02-10T08:57:56.267Z,8.90
2019-02-10T09:00:24.979Z,8.90
2019-02-10T09:02:53.399Z,9.00
2019-02-10T09:05:22.031Z,9.00
2019-02-10T09:07:50.426Z,9.00
2019-02-10T09:10:18.838Z,9.10
2019-02-10T09:12:47.240Z,9.00
2019-02-10T09:15:15.633Z,9.00
2019-02-10T09:17:44.283Z,9.00
2019-02-10T09:20:12.745Z,9.00
2019-02-10T09:22:41.158Z,9.00
2019-02-10T09:25:11.742Z,8.90
2019-02-10T09:27:43.085Z,8.90
2019-02-10T09:30:13.412Z,8.80
2019-02-10T09:32:41.806Z,8.80
2019-02-10T09:35:10.265Z,8.70
2019-02-10T09:37:38.666Z,8.70
2019-02-10T09:40:09.994Z,8.60
2019-02-10T09:42:38.626Z,8.60
2019-02-10T09:45:10.411Z,8.60
2019-02-10T09:47:39.034Z,8.60
2019-02-10T09:50:14.280Z,8.50
2019-02-10T09:52:42.661Z,8.60
2019-02-10T09:55:11.122Z,8.50
2019-02-10T09:57:39.515Z,8.50
2019-02-10T10:00:13.071Z,8.50
2019-02-10T10:02:41.552Z,8.60
2019-02-10T10:05:12.774Z,8.60
2019-02-10T10:07:41.167Z,8.60
2019-02-10T10:10:13.859Z,8.50
2019-02-10T10:12:42.294Z,8.50
2019-02-10T10:17:52.871Z,8.40
2019-02-10T10:20:21.506Z,8.50
2019-02-10T10:22:49.901Z,8.50
2019-02-10T10:25:18.525Z,8.50
2019-02-10T10:27:47.159Z,8.40
2019-02-10T10:30:17.897Z,8.50
2019-02-10T10:32:46.281Z,8.50
2019-02-10T10:35:14.808Z,8.50
2019-02-10T10:37:43.237Z,8.50
2019-02-10T10:40:12.278Z,8.50
2019-02-10T10:42:40.687Z,8.50
2019-02-10T10:45:14.105Z,8.60
2019-02-10T10:47:42.617Z,8.70
2019-02-10T10:50:12.657Z,8.70
2019-02-10T10:52:48.354Z,8.70
2019-02-10T10:55:16.852Z,8.80
2019-02-10T10:57:45.229Z,8.90
2019-02-10T11:00:16.422Z,8.90
2019-02-10T11:02:45.107Z,9.00
2019-02-10T11:05:14.955Z,8.90
2019-02-10T11:07:44.017Z,8.90
2019-02-10T11:10:13.309Z,8.90
2019-02-10T11:12:41.716Z,9.00
2019-02-10T11:15:16.565Z,8.90
2019-02-10T11:17:45.340Z,8.90
2019-02-10T11:20:14.129Z,8.80
2019-02-10T11:22:42.525Z,8.80
2019-02-10T11:25:13.913Z,8.70
2019-02-10T11:27:42.778Z,8.80
2019-02-10T11:30:13.445Z,8.70
2019-02-10T11:32:41.829Z,8.70
2019-02-10T11:35:10.886Z,8.70
2019-02-10T11:37:39.701Z,8.70
2019-02-10T11:40:10.895Z,8.70
2019-02-10T11:42:42.177Z,8.60
2019-02-10T11:45:12.985Z,8.70
2019-02-10T11:47:41.616Z,8.60
2019-02-10T11:50:14.288Z,8.60
2019-02-10T11:52:42.681Z,8.60
2019-02-10T11:55:11.597Z,8.60
2019-02-10T11:57:39.988Z,8.60
2019-02-10T12:00:16.824Z,8.70
2019-02-10T12:02:45.285Z,8.70
2019-02-10T12:05:13.916Z,8.80
2019-02-10T12:07:42.377Z,8.80
2019-02-10T12:10:12.520Z,8.80
2019-02-10T12:12:40.929Z,8.90
2019-02-10T12:15:15.949Z,9.00
2019-02-10T12:17:44.586Z,9.00
2019-02-10T12:20:14.117Z,9.00
2019-02-10T12:22:49.821Z,9.00
2019-02-10T12:25:13.024Z,9.10
2019-02-10T12:27:41.698Z,9.10
2019-02-10T12:30:13.041Z,9.10
2019-02-10T12:32:41.469Z,9.10
2019-02-10T12:35:11.303Z,9.10
2019-02-10T12:37:39.768Z,9.10
2019-02-10T12:40:09.493Z,9.10
2019-02-10T12:42:38.122Z,9.10
2019-02-10T12:45:09.458Z,9.10
2019-02-10T12:47:38.147Z,9.10
2019-02-10T12:50:14.542Z,9.00
2019-02-10T12:52:42.936Z,9.00
2019-02-10T12:55:12.168Z,9.00
2019-02-10T12:57:40.856Z,8.90
2019-02-10T13:00:15.045Z,8.70
2019-02-10T13:02:43.430Z,8.60
2019-02-10T13:05:12.230Z,8.60
2019-02-10T13:07:40.954Z,8.50
2019-02-10T13:10:12.108Z,8.40
2019-02-10T13:12:40.805Z,8.40
2019-02-10T13:15:10.847Z,8.40
2019-02-10T13:17:39.869Z,8.50
2019-02-10T13:20:10.499Z,8.50
2019-02-10T13:22:38.964Z,8.60
2019-02-10T13:25:14.989Z,8.60
2019-02-10T13:27:43.705Z,8.60
2019-02-10T13:30:15.186Z,8.70
2019-02-10T13:33:03.210Z,8.80
2019-02-10T13:35:31.615Z,8.80
2019-02-10T13:38:00.296Z,8.70
2019-02-10T13:40:28.739Z,8.70
2019-02-10T13:42:57.402Z,8.70
2019-02-10T13:45:26.059Z,8.70
2019-02-10T13:47:54.463Z,8.70
2019-02-10T13:50:22.910Z,8.70
2019-02-10T13:52:51.311Z,8.70
2019-02-10T13:55:19.752Z,8.70
2019-02-10T13:57:48.179Z,8.70
2019-02-10T14:00:21.514Z,8.80
2019-02-10T14:02:49.935Z,8.70
2019-02-10T14:05:18.458Z,8.70
2019-02-10T14:07:47.025Z,8.70
2019-02-10T14:10:24.965Z,8.80
2019-02-10T14:12:47.007Z,8.80
2019-02-10T14:15:19.233Z,8.90
2019-02-10T14:17:47.631Z,8.90
2019-02-10T14:20:19.974Z,8.70
2019-02-10T14:22:48.375Z,8.60
2019-02-10T14:25:16.899Z,8.60
2019-02-10T14:27:45.571Z,8.50
2019-02-10T14:30:19.147Z,8.50
2019-02-10T14:32:47.582Z,8.50
2019-02-10T14:35:16.025Z,8.40
2019-02-10T14:37:44.437Z,8.50
2019-02-10T14:40:12.945Z,8.40
2019-02-10T14:42:41.346Z,8.50
2019-02-10T14:45:13.024Z,8.50
2019-02-10T14:47:41.428Z,8.50
2019-02-10T14:50:19.249Z,8.50
2019-02-10T14:52:47.711Z,8.50
2019-02-10T14:55:16.130Z,8.50
2019-02-10T14:57:44.535Z,8.50
2019-02-10T15:00:15.920Z,8.50
2019-02-10T15:02:44.472Z,8.40
2019-02-10T15:05:12.986Z,8.40
2019-02-10T15:07:41.614Z,8.30
2019-02-10T15:10:17.767Z,8.30
2019-02-10T15:12:46.388Z,8.30
2019-02-10T15:15:14.910Z,8.30
2019-02-10T15:17:43.594Z,8.30
2019-02-10T15:20:12.932Z,8.20
2019-02-10T15:22:41.531Z,8.20
2019-02-10T15:25:13.699Z,8.20
2019-02-10T15:27:42.176Z,8.10
2019-02-10T15:30:18.570Z,8.10
2019-02-10T15:32:47.229Z,8.00
2019-02-10T15:35:15.691Z,8.00
2019-02-10T15:37:44.109Z,7.90
2019-02-10T15:40:13.210Z,7.90
2019-02-10T15:42:41.678Z,7.80
2019-02-10T15:45:11.821Z,7.80
2019-02-10T15:47:40.243Z,7.60
2019-02-10T15:50:10.795Z,7.50
2019-02-10T15:52:39.218Z,7.40
2019-02-10T15:55:09.991Z,7.30
2019-02-10T15:57:38.399Z,7.20
2019-02-10T16:00:15.949Z,7.10
2019-02-10T16:02:44.385Z,7.10
2019-02-10T16:05:13.342Z,7.00
2019-02-10T16:07:41.991Z,7.10
2019-02-10T16:10:11.799Z,7.10
2019-02-10T16:12:40.234Z,7.10
2019-02-10T16:15:11.107Z,7.20
2019-02-10T16:17:39.606Z,7.20
2019-02-10T16:20:10.831Z,7.20
2019-02-10T16:22:39.545Z,7.30
2019-02-10T16:25:08.944Z,7.20
2019-02-10T16:27:37.342Z,7.20
2019-02-10T16:30:09.254Z,7.10
2019-02-10T16:32:37.730Z,7.00
2019-02-10T16:35:07.489Z,6.90
2019-02-10T16:37:35.965Z,6.80
2019-02-10T16:40:07.599Z,6.60
2019-02-10T16:42:36.021Z,6.40
2019-02-10T16:45:06.898Z,6.20
2019-02-10T16:47:35.294Z,6.00
2019-02-10T16:50:05.263Z,6.00
2019-02-10T16:52:33.944Z,6.00
2019-02-10T16:55:02.354Z,6.00
2019-02-10T16:57:31.206Z,5.90
2019-02-10T16:59:59.897Z,5.90
2019-02-10T17:02:28.342Z,5.90
2019-02-10T17:04:56.743Z,5.90
2019-02-10T17:07:25.175Z,5.90
2019-02-10T17:09:53.570Z,5.80
2019-02-10T17:12:21.988Z,5.80
2019-02-10T17:14:50.422Z,5.70
2019-02-10T17:17:19.159Z,5.70
2019-02-10T17:19:47.580Z,5.70
2019-02-10T17:22:16.003Z,5.70
2019-02-10T17:24:44.403Z,5.70
2019-02-10T17:27:12.981Z,5.70
2019-02-10T17:29:41.423Z,5.70
2019-02-10T17:32:09.814Z,5.70
2019-02-10T17:34:38.215Z,5.70
2019-02-10T17:37:06.911Z,5.70
2019-02-10T17:39:35.403Z,5.70
2019-02-10T17:42:03.806Z,5.70
2019-02-10T17:44:32.221Z,5.70
2019-02-10T17:47:00.944Z,5.60
2019-02-10T17:49:29.371Z,5.60
2019-02-10T17:51:57.906Z,5.60
2019-02-10T17:54:26.319Z,5.60
2019-02-10T17:56:54.788Z,5.50
2019-02-10T17:59:23.209Z,5.50
2019-02-10T18:01:51.615Z,5.50
2019-02-10T18:04:20.042Z,5.50
2019-02-10T18:06:48.662Z,5.50
2019-02-10T18:09:17.091Z,5.40
2019-02-10T18:11:45.492Z,5.40
2019-02-10T18:14:15.572Z,5.40
2019-02-10T18:16:46.002Z,5.30
2019-02-10T18:19:19.052Z,5.30
2019-02-10T18:21:51.492Z,5.30
2019-02-10T18:24:33.659Z,5.40
2019-02-10T18:27:03.735Z,5.40
2019-02-10T18:29:45.660Z,5.40
2019-02-10T18:32:18.929Z,5.50
2019-02-10T18:34:49.298Z,5.50
2019-02-10T18:37:25.654Z,5.50
2019-02-10T18:39:58.649Z,5.50
2019-02-10T18:42:28.697Z,5.50
2019-02-10T18:45:01.665Z,5.60
2019-02-10T18:47:34.424Z,5.60
2019-02-10T18:50:20.830Z,5.70
2019-02-10T18:53:00.387Z,5.60
2019-02-10T18:55:33.265Z,5.60
2019-02-10T18:58:05.770Z,5.60
2019-02-10T19:00:39.050Z,5.50
2019-02-10T19:03:24.628Z,5.50
2019-02-10T19:06:13.057Z,5.50
2019-02-10T19:08:49.123Z,5.40
2019-02-10T19:11:24.883Z,5.50
2019-02-10T19:14:03.535Z,5.50
2019-02-10T19:16:42.551Z,5.50
2019-02-10T19:19:21.529Z,5.50
2019-02-10T19:22:07.963Z,5.60
2019-02-10T19:24:47.507Z,5.60
2019-02-10T19:27:26.529Z,5.60
2019-02-10T19:30:14.691Z,5.60
2019-02-10T19:32:47.660Z,5.60
2019-02-10T19:35:17.724Z,5.60
2019-02-10T19:37:47.761Z,5.60
2019-02-10T19:43:18.866Z,5.50
2019-02-10T19:45:48.903Z,5.40
2019-02-10T19:48:24.932Z,5.40
2019-02-10T19:51:12.867Z,5.40
2019-02-10T19:53:55.180Z,5.40
2019-02-10T19:56:31.048Z,5.40
2019-02-10T19:59:04.046Z,5.30
2019-02-10T20:01:34.137Z,5.30
2019-02-10T20:04:04.419Z,5.30
2019-02-10T20:06:40.022Z,5.30
2019-02-10T20:09:26.238Z,5.30
2019-02-10T20:12:08.741Z,5.30
2019-02-10T20:14:53.818Z,5.40
2019-02-10T20:17:35.850Z,5.30
2019-02-10T20:20:20.456Z,5.30
2019-02-10T20:22:56.310Z,5.30
2019-02-10T20:25:26.372Z,5.30
2019-02-10T20:27:56.428Z,5.30
2019-02-10T20:30:29.171Z,5.30
2019-02-10T20:32:59.486Z,5.20
2019-02-10T20:35:29.532Z,5.20
2019-02-10T20:37:59.574Z,5.10
2019-02-10T20:40:47.620Z,5.10
2019-02-10T20:43:26.649Z,5.00
2019-02-10T20:46:11.684Z,5.00
2019-02-10T20:48:41.981Z,4.90
2019-02-10T20:51:14.603Z,4.80
2019-02-10T20:56:44.135Z,4.80
2019-02-10T20:59:29.415Z,4.70
2019-02-10T21:01:59.511Z,4.70
2019-02-10T21:04:35.810Z,4.60
2019-02-10T21:07:11.817Z,4.50
2019-02-10T21:09:41.856Z,4.40
2019-02-10T21:12:20.348Z,4.40
2019-02-10T21:14:46.713Z,4.40
2019-02-10T21:17:16.801Z,4.40
2019-02-10T21:19:59.330Z,4.40
2019-02-10T21:22:47.453Z,4.30
2019-02-10T21:25:33.655Z,4.30
2019-02-10T21:28:09.413Z,4.30
2019-02-10T21:30:45.192Z,4.30
2019-02-10T21:33:24.249Z,4.20
2019-02-10T21:36:00.490Z,4.10
2019-02-10T21:38:30.799Z,4.10
2019-02-10T21:41:00.832Z,4.00
2019-02-10T21:43:30.873Z,4.00
2019-02-10T21:46:01.265Z,3.90
2019-02-10T21:48:31.378Z,3.90
2019-02-10T21:50:59.774Z,3.80
2019-02-10T21:53:28.407Z,3.80
2019-02-10T21:55:57.052Z,3.80
2019-02-10T21:58:25.686Z,3.70
2019-02-10T22:00:54.320Z,3.70
2019-02-10T22:03:22.969Z,3.70
2019-02-10T22:05:51.607Z,3.70
2019-02-10T22:08:20.376Z,3.70
2019-02-10T22:10:48.819Z,3.70
2019-02-10T22:13:17.218Z,3.60
2019-02-10T22:15:45.637Z,3.60
2019-02-10T22:18:14.013Z,3.60
2019-02-10T22:20:42.646Z,3.50
2019-02-10T22:23:11.042Z,3.60
2019-02-10T22:25:40.460Z,3.50
2019-02-10T22:28:09.009Z,3.60
2019-02-10T22:30:37.446Z,3.50
2019-02-10T22:33:05.890Z,3.50
2019-02-10T22:35:34.506Z,3.40
2019-02-10T22:38:03.165Z,3.40
2019-02-10T22:40:31.808Z,3.40
2019-02-10T22:43:00.202Z,3.40
2019-02-10T22:45:30.774Z,3.40
2019-02-10T22:47:59.413Z,3.30
2019-02-10T22:50:28.050Z,3.30
2019-02-10T22:52:56.437Z,3.30
2019-02-10T22:55:25.076Z,3.30
2019-02-10T22:57:53.702Z,3.20
2019-02-10T23:00:41.446Z,3.30
2019-02-10T23:03:09.821Z,3.20
2019-02-10T23:05:38.521Z,3.20
2019-02-10T23:08:07.162Z,3.20
2019-02-10T23:10:35.560Z,3.20
2019-02-10T23:13:04.226Z,3.10
2019-02-10T23:15:32.862Z,3.10
2019-02-10T23:18:01.502Z,3.00
2019-02-10T23:20:30.240Z,3.00
2019-02-10T23:22:58.609Z,3.00
2019-02-10T23:25:27.018Z,2.90
2019-02-10T23:27:55.643Z,2.90
2019-02-10T23:30:24.041Z,2.90
2019-02-10T23:32:52.462Z,2.90
2019-02-10T23:35:20.901Z,2.90
2019-02-10T23:37:49.538Z,2.90
2019-02-10T23:40:18.166Z,2.90
2019-02-10T23:42:46.583Z,2.80
2019-02-10T23:45:15.072Z,2.80
2019-02-10T23:47:43.505Z,2.70
2019-02-10T23:50:11.991Z,2.70
2019-02-10T23:52:40.667Z,2.70
2019-02-10T23:55:09.119Z,2.60
2019-02-10T23:57:37.682Z,2.60
